sensor_id;sensor_type;location;lat;lon;timestamp;P1;durP1;ratioP1;P2;durP2;ratioP2
53781;SDS011;39692;53.114;7.060;2022-12-29T00:02:08;5.38;;;3.83;;
53781;SDS011;39692;53.114;7.060;2022-12-29T00:04:34;5.75;;;4.28;;
53781;SDS011;39692;53.114;7.060;2022-12-29T00:07:00;5.30;;;4.00;;
53781;SDS011;39692;53.114;7.060;2022-12-29T00:09:26;5.80;;;3.83;;
53781;SDS011;39692;53.114;7.060;2022-12-29T00:11:52;5.70;;;3.92;;
53781;SDS011;39692;53.114;7.060;2022-12-29T00:14:18;6.97;;;3.92;;
53781;SDS011;39692;53.114;7.060;2022-12-29T00:17:02;5.15;;;3.75;;
53781;SDS011;39692;53.114;7.060;2022-12-29T00:19:28;5.60;;;3.75;;
53781;SDS011;39692;53.114;7.060;2022-12-29T00:22:13;7.07;;;4.22;;
53781;SDS011;39692;53.114;7.060;2022-12-29T00:24:58;7.25;;;4.20;;
53781;SDS011;39692;53.114;7.060;2022-12-29T00:27:30;5.00;;;3.92;;
53781;SDS011;39692;53.114;7.060;2022-12-29T00:30:16;5.35;;;4.03;;
53781;SDS011;39692;53.114;7.060;2022-12-29T00:33:08;6.38;;;3.90;;
53781;SDS011;39692;53.114;7.060;2022-12-29T00:35:54;5.55;;;4.15;;
53781;SDS011;39692;53.114;7.060;2022-12-29T00:38:22;6.30;;;4.10;;
53781;SDS011;39692;53.114;7.060;2022-12-29T00:41:06;6.32;;;4.57;;
53781;SDS011;39692;53.114;7.060;2022-12-29T00:43:51;7.53;;;5.22;;
53781;SDS011;39692;53.114;7.060;2022-12-29T00:46:30;6.63;;;4.75;;
53781;SDS011;39692;53.114;7.060;2022-12-29T00:48:56;7.60;;;5.45;;
53781;SDS011;39692;53.114;7.060;2022-12-29T00:51:41;5.93;;;4.45;;
53781;SDS011;39692;53.114;7.060;2022-12-29T00:54:07;6.60;;;5.05;;
53781;SDS011;39692;53.114;7.060;2022-12-29T00:56:32;6.05;;;4.35;;
53781;SDS011;39692;53.114;7.060;2022-12-29T00:59:02;6.85;;;4.78;;
53781;SDS011;39692;53.114;7.060;2022-12-29T01:01:28;5.53;;;4.38;;
53781;SDS011;39692;53.114;7.060;2022-12-29T01:03:55;6.47;;;4.13;;
53781;SDS011;39692;53.114;7.060;2022-12-29T01:06:20;7.80;;;5.32;;
53781;SDS011;39692;53.114;7.060;2022-12-29T01:08:47;6.70;;;4.88;;
53781;SDS011;39692;53.114;7.060;2022-12-29T01:11:33;6.45;;;4.20;;
53781;SDS011;39692;53.114;7.060;2022-12-29T01:13:59;7.20;;;4.50;;
53781;SDS011;39692;53.114;7.060;2022-12-29T01:16:25;7.13;;;4.75;;
53781;SDS011;39692;53.114;7.060;2022-12-29T01:18:51;7.22;;;4.43;;
53781;SDS011;39692;53.114;7.060;2022-12-29T01:21:17;8.27;;;4.30;;
53781;SDS011;39692;53.114;7.060;2022-12-29T01:23:43;9.68;;;4.82;;
53781;SDS011;39692;53.114;7.060;2022-12-29T01:26:09;5.53;;;3.90;;
53781;SDS011;39692;53.114;7.060;2022-12-29T01:28:35;6.68;;;4.38;;
53781;SDS011;39692;53.114;7.060;2022-12-29T01:31:03;6.03;;;3.95;;
53781;SDS011;39692;53.114;7.060;2022-12-29T01:33:30;6.53;;;4.18;;
53781;SDS011;39692;53.114;7.060;2022-12-29T01:35:59;5.82;;;3.58;;
53781;SDS011;39692;53.114;7.060;2022-12-29T01:38:29;4.63;;;3.22;;
53781;SDS011;39692;53.114;7.060;2022-12-29T01:40:54;5.22;;;3.83;;
53781;SDS011;39692;53.114;7.060;2022-12-29T01:43:20;5.25;;;3.65;;
53781;SDS011;39692;53.114;7.060;2022-12-29T01:45:50;5.55;;;3.63;;
53781;SDS011;39692;53.114;7.060;2022-12-29T01:48:18;4.82;;;3.33;;
53781;SDS011;39692;53.114;7.060;2022-12-29T01:50:51;5.80;;;3.42;;
53781;SDS011;39692;53.114;7.060;2022-12-29T01:53:19;4.15;;;2.67;;
53781;SDS011;39692;53.114;7.060;2022-12-29T01:55:51;4.22;;;2.80;;
53781;SDS011;39692;53.114;7.060;2022-12-29T01:58:19;4.75;;;3.22;;
53781;SDS011;39692;53.114;7.060;2022-12-29T02:00:47;4.13;;;2.90;;
53781;SDS011;39692;53.114;7.060;2022-12-29T02:03:13;6.55;;;3.13;;
53781;SDS011;39692;53.114;7.060;2022-12-29T02:05:44;4.63;;;3.33;;
53781;SDS011;39692;53.114;7.060;2022-12-29T02:08:30;4.88;;;2.50;;
53781;SDS011;39692;53.114;7.060;2022-12-29T02:10:56;5.28;;;3.30;;
53781;SDS011;39692;53.114;7.060;2022-12-29T02:13:24;4.57;;;2.97;;
53781;SDS011;39692;53.114;7.060;2022-12-29T02:29:39;4.95;;;2.80;;
53781;SDS011;39692;53.114;7.060;2022-12-29T02:32:46;5.85;;;2.95;;
53781;SDS011;39692;53.114;7.060;2022-12-29T02:35:23;6.65;;;2.70;;
53781;SDS011;39692;53.114;7.060;2022-12-29T02:40:46;4.35;;;2.63;;
53781;SDS011;39692;53.114;7.060;2022-12-29T02:51:27;3.13;;;1.77;;
53781;SDS011;39692;53.114;7.060;2022-12-29T02:53:55;3.10;;;1.85;;
53781;SDS011;39692;53.114;7.060;2022-12-29T02:56:41;4.18;;;2.10;;
53781;SDS011;39692;53.114;7.060;2022-12-29T02:59:07;3.72;;;1.98;;
53781;SDS011;39692;53.114;7.060;2022-12-29T03:07:37;2.83;;;1.73;;
53781;SDS011;39692;53.114;7.060;2022-12-29T03:13:03;3.53;;;2.33;;
53781;SDS011;39692;53.114;7.060;2022-12-29T03:16:05;3.65;;;2.17;;
53781;SDS011;39692;53.114;7.060;2022-12-29T03:21:19;3.25;;;1.63;;
53781;SDS011;39692;53.114;7.060;2022-12-29T03:24:13;3.20;;;1.80;;
53781;SDS011;39692;53.114;7.060;2022-12-29T03:26:40;3.65;;;1.80;;
53781;SDS011;39692;53.114;7.060;2022-12-29T03:29:07;2.85;;;1.58;;
53781;SDS011;39692;53.114;7.060;2022-12-29T03:31:35;3.10;;;1.75;;
53781;SDS011;39692;53.114;7.060;2022-12-29T03:34:01;2.95;;;1.83;;
53781;SDS011;39692;53.114;7.060;2022-12-29T03:36:32;3.67;;;1.70;;
53781;SDS011;39692;53.114;7.060;2022-12-29T03:39:09;3.40;;;1.48;;
53781;SDS011;39692;53.114;7.060;2022-12-29T03:41:42;7.03;;;1.77;;
53781;SDS011;39692;53.114;7.060;2022-12-29T03:44:10;6.50;;;1.70;;
53781;SDS011;39692;53.114;7.060;2022-12-29T03:46:36;2.70;;;1.38;;
53781;SDS011;39692;53.114;7.060;2022-12-29T03:49:02;2.20;;;1.30;;
53781;SDS011;39692;53.114;7.060;2022-12-29T03:51:28;3.17;;;1.40;;
53781;SDS011;39692;53.114;7.060;2022-12-29T03:53:54;2.38;;;1.30;;
53781;SDS011;39692;53.114;7.060;2022-12-29T03:56:20;2.60;;;1.35;;
53781;SDS011;39692;53.114;7.060;2022-12-29T03:58:46;2.60;;;1.55;;
53781;SDS011;39692;53.114;7.060;2022-12-29T04:01:12;3.83;;;1.48;;
53781;SDS011;39692;53.114;7.060;2022-12-29T04:03:38;2.83;;;1.73;;
53781;SDS011;39692;53.114;7.060;2022-12-29T04:06:04;2.17;;;1.30;;
53781;SDS011;39692;53.114;7.060;2022-12-29T04:08:31;3.30;;;1.58;;
53781;SDS011;39692;53.114;7.060;2022-12-29T04:10:56;2.13;;;1.30;;
53781;SDS011;39692;53.114;7.060;2022-12-29T04:13:22;2.47;;;1.50;;
53781;SDS011;39692;53.114;7.060;2022-12-29T04:15:48;2.83;;;1.65;;
53781;SDS011;39692;53.114;7.060;2022-12-29T04:18:14;2.92;;;1.50;;
53781;SDS011;39692;53.114;7.060;2022-12-29T04:20:41;2.90;;;1.77;;
53781;SDS011;39692;53.114;7.060;2022-12-29T04:23:25;3.40;;;1.42;;
53781;SDS011;39692;53.114;7.060;2022-12-29T04:25:51;2.97;;;1.60;;
53781;SDS011;39692;53.114;7.060;2022-12-29T04:28:18;3.00;;;1.50;;
53781;SDS011;39692;53.114;7.060;2022-12-29T04:30:44;3.20;;;1.33;;
53781;SDS011;39692;53.114;7.060;2022-12-29T04:33:10;2.90;;;1.10;;
53781;SDS011;39692;53.114;7.060;2022-12-29T04:35:35;3.40;;;1.20;;
53781;SDS011;39692;53.114;7.060;2022-12-29T04:38:01;2.25;;;1.00;;
53781;SDS011;39692;53.114;7.060;2022-12-29T04:40:27;1.63;;;0.75;;
53781;SDS011;39692;53.114;7.060;2022-12-29T04:42:53;2.40;;;0.70;;
53781;SDS011;39692;53.114;7.060;2022-12-29T04:45:18;2.20;;;0.65;;
53781;SDS011;39692;53.114;7.060;2022-12-29T04:47:44;2.45;;;1.27;;
53781;SDS011;39692;53.114;7.060;2022-12-29T04:50:10;2.33;;;0.80;;
53781;SDS011;39692;53.114;7.060;2022-12-29T04:52:37;1.17;;;0.55;;
53781;SDS011;39692;53.114;7.060;2022-12-29T04:55:02;2.10;;;0.52;;
53781;SDS011;39692;53.114;7.060;2022-12-29T04:57:29;1.65;;;0.47;;
53781;SDS011;39692;53.114;7.060;2022-12-29T04:59:55;1.52;;;0.55;;
53781;SDS011;39692;53.114;7.060;2022-12-29T05:02:21;2.72;;;0.68;;
53781;SDS011;39692;53.114;7.060;2022-12-29T05:04:47;2.42;;;0.60;;
53781;SDS011;39692;53.114;7.060;2022-12-29T05:07:13;2.10;;;0.70;;
53781;SDS011;39692;53.114;7.060;2022-12-29T05:09:39;1.52;;;0.50;;
53781;SDS011;39692;53.114;7.060;2022-12-29T05:12:05;4.05;;;0.70;;
53781;SDS011;39692;53.114;7.060;2022-12-29T05:14:31;2.75;;;0.90;;
53781;SDS011;39692;53.114;7.060;2022-12-29T05:16:57;3.95;;;0.88;;
53781;SDS011;39692;53.114;7.060;2022-12-29T05:19:23;2.95;;;0.80;;
53781;SDS011;39692;53.114;7.060;2022-12-29T05:21:49;6.95;;;1.05;;
53781;SDS011;39692;53.114;7.060;2022-12-29T05:24:15;2.65;;;1.05;;
53781;SDS011;39692;53.114;7.060;2022-12-29T05:26:41;7.47;;;2.20;;
53781;SDS011;39692;53.114;7.060;2022-12-29T05:29:08;4.35;;;1.77;;
53781;SDS011;39692;53.114;7.060;2022-12-29T05:31:34;3.35;;;1.25;;
53781;SDS011;39692;53.114;7.060;2022-12-29T05:34:00;4.28;;;1.00;;
53781;SDS011;39692;53.114;7.060;2022-12-29T05:36:26;5.93;;;1.60;;
53781;SDS011;39692;53.114;7.060;2022-12-29T05:38:53;5.78;;;1.52;;
53781;SDS011;39692;53.114;7.060;2022-12-29T05:41:19;8.35;;;1.30;;
53781;SDS011;39692;53.114;7.060;2022-12-29T05:43:45;1.48;;;0.70;;
53781;SDS011;39692;53.114;7.060;2022-12-29T05:46:11;6.10;;;1.20;;
53781;SDS011;39692;53.114;7.060;2022-12-29T05:48:37;7.30;;;1.30;;
53781;SDS011;39692;53.114;7.060;2022-12-29T05:51:03;4.63;;;1.48;;
53781;SDS011;39692;53.114;7.060;2022-12-29T05:53:29;4.28;;;1.13;;
53781;SDS011;39692;53.114;7.060;2022-12-29T05:55:55;2.90;;;0.93;;
53781;SDS011;39692;53.114;7.060;2022-12-29T05:58:21;4.20;;;0.80;;
53781;SDS011;39692;53.114;7.060;2022-12-29T06:00:47;4.43;;;1.38;;
53781;SDS011;39692;53.114;7.060;2022-12-29T06:03:12;3.08;;;1.13;;
53781;SDS011;39692;53.114;7.060;2022-12-29T06:05:38;5.15;;;1.38;;
53781;SDS011;39692;53.114;7.060;2022-12-29T06:08:04;4.72;;;1.27;;
53781;SDS011;39692;53.114;7.060;2022-12-29T06:10:29;5.43;;;0.90;;
53781;SDS011;39692;53.114;7.060;2022-12-29T06:12:55;4.88;;;0.95;;
53781;SDS011;39692;53.114;7.060;2022-12-29T06:15:21;3.40;;;1.30;;
53781;SDS011;39692;53.114;7.060;2022-12-29T06:17:46;8.02;;;1.27;;
53781;SDS011;39692;53.114;7.060;2022-12-29T06:20:12;1.70;;;0.85;;
53781;SDS011;39692;53.114;7.060;2022-12-29T06:22:38;2.08;;;1.13;;
53781;SDS011;39692;53.114;7.060;2022-12-29T06:25:04;4.95;;;1.55;;
53781;SDS011;39692;53.114;7.060;2022-12-29T06:27:30;1.80;;;0.77;;
53781;SDS011;39692;53.114;7.060;2022-12-29T06:29:56;5.57;;;1.38;;
53781;SDS011;39692;53.114;7.060;2022-12-29T06:32:22;2.05;;;0.88;;
53781;SDS011;39692;53.114;7.060;2022-12-29T06:34:47;4.70;;;1.13;;
53781;SDS011;39692;53.114;7.060;2022-12-29T06:37:13;2.45;;;1.05;;
53781;SDS011;39692;53.114;7.060;2022-12-29T06:39:39;5.07;;;1.23;;
53781;SDS011;39692;53.114;7.060;2022-12-29T06:42:05;6.05;;;1.42;;
53781;SDS011;39692;53.114;7.060;2022-12-29T06:44:31;5.75;;;1.52;;
53781;SDS011;39692;53.114;7.060;2022-12-29T06:46:57;4.68;;;1.38;;
53781;SDS011;39692;53.114;7.060;2022-12-29T06:49:23;4.45;;;1.35;;
53781;SDS011;39692;53.114;7.060;2022-12-29T06:51:48;4.97;;;1.27;;
53781;SDS011;39692;53.114;7.060;2022-12-29T06:54:14;4.32;;;1.23;;
53781;SDS011;39692;53.114;7.060;2022-12-29T06:56:40;4.57;;;1.27;;
53781;SDS011;39692;53.114;7.060;2022-12-29T06:59:05;4.70;;;1.27;;
53781;SDS011;39692;53.114;7.060;2022-12-29T07:01:31;5.28;;;1.45;;
53781;SDS011;39692;53.114;7.060;2022-12-29T07:03:57;5.63;;;1.35;;
53781;SDS011;39692;53.114;7.060;2022-12-29T07:06:23;5.03;;;1.40;;
53781;SDS011;39692;53.114;7.060;2022-12-29T07:08:49;11.15;;;1.45;;
53781;SDS011;39692;53.114;7.060;2022-12-29T07:11:15;5.43;;;1.70;;
53781;SDS011;39692;53.114;7.060;2022-12-29T07:13:41;8.45;;;1.23;;
53781;SDS011;39692;53.114;7.060;2022-12-29T07:16:08;5.60;;;1.20;;
53781;SDS011;39692;53.114;7.060;2022-12-29T07:18:34;4.00;;;1.30;;
53781;SDS011;39692;53.114;7.060;2022-12-29T07:21:00;4.45;;;1.25;;
53781;SDS011;39692;53.114;7.060;2022-12-29T07:23:27;3.92;;;1.35;;
53781;SDS011;39692;53.114;7.060;2022-12-29T07:26:03;10.48;;;1.40;;
53781;SDS011;39692;53.114;7.060;2022-12-29T07:28:29;6.80;;;1.50;;
53781;SDS011;39692;53.114;7.060;2022-12-29T07:30:55;5.45;;;1.80;;
53781;SDS011;39692;53.114;7.060;2022-12-29T07:33:21;6.53;;;1.90;;
53781;SDS011;39692;53.114;7.060;2022-12-29T07:35:47;4.07;;;0.93;;
53781;SDS011;39692;53.114;7.060;2022-12-29T07:38:14;5.47;;;1.15;;
53781;SDS011;39692;53.114;7.060;2022-12-29T07:40:40;5.50;;;1.13;;
53781;SDS011;39692;53.114;7.060;2022-12-29T07:43:06;5.93;;;1.65;;
53781;SDS011;39692;53.114;7.060;2022-12-29T07:45:32;7.50;;;1.20;;
53781;SDS011;39692;53.114;7.060;2022-12-29T07:47:58;5.00;;;1.77;;
53781;SDS011;39692;53.114;7.060;2022-12-29T07:50:24;5.53;;;1.23;;
53781;SDS011;39692;53.114;7.060;2022-12-29T07:52:50;7.07;;;1.30;;
53781;SDS011;39692;53.114;7.060;2022-12-29T07:55:16;9.48;;;1.92;;
53781;SDS011;39692;53.114;7.060;2022-12-29T07:57:42;6.07;;;1.75;;
53781;SDS011;39692;53.114;7.060;2022-12-29T08:00:08;4.22;;;1.30;;
53781;SDS011;39692;53.114;7.060;2022-12-29T08:02:35;3.38;;;1.15;;
53781;SDS011;39692;53.114;7.060;2022-12-29T08:05:01;10.07;;;1.77;;
53781;SDS011;39692;53.114;7.060;2022-12-29T08:07:27;7.40;;;1.50;;
53781;SDS011;39692;53.114;7.060;2022-12-29T08:09:53;4.20;;;1.20;;
53781;SDS011;39692;53.114;7.060;2022-12-29T08:12:19;3.17;;;1.70;;
53781;SDS011;39692;53.114;7.060;2022-12-29T08:14:45;10.35;;;1.67;;
53781;SDS011;39692;53.114;7.060;2022-12-29T08:17:11;9.23;;;1.27;;
53781;SDS011;39692;53.114;7.060;2022-12-29T08:19:37;8.48;;;2.35;;
53781;SDS011;39692;53.114;7.060;2022-12-29T08:22:04;4.63;;;1.55;;
53781;SDS011;39692;53.114;7.060;2022-12-29T08:24:30;4.97;;;1.50;;
53781;SDS011;39692;53.114;7.060;2022-12-29T08:26:56;4.78;;;1.40;;
53781;SDS011;39692;53.114;7.060;2022-12-29T08:29:22;5.00;;;1.48;;
53781;SDS011;39692;53.114;7.060;2022-12-29T08:31:48;6.45;;;2.22;;
53781;SDS011;39692;53.114;7.060;2022-12-29T08:34:14;5.38;;;1.85;;
53781;SDS011;39692;53.114;7.060;2022-12-29T08:36:40;5.45;;;1.52;;
53781;SDS011;39692;53.114;7.060;2022-12-29T08:39:06;4.43;;;1.92;;
53781;SDS011;39692;53.114;7.060;2022-12-29T08:41:32;7.25;;;1.45;;
53781;SDS011;39692;53.114;7.060;2022-12-29T08:43:58;5.72;;;1.58;;
53781;SDS011;39692;53.114;7.060;2022-12-29T08:46:24;5.35;;;1.52;;
53781;SDS011;39692;53.114;7.060;2022-12-29T08:48:51;15.20;;;2.70;;
53781;SDS011;39692;53.114;7.060;2022-12-29T08:51:17;8.43;;;1.98;;
53781;SDS011;39692;53.114;7.060;2022-12-29T08:53:43;8.35;;;1.75;;
53781;SDS011;39692;53.114;7.060;2022-12-29T08:56:09;9.23;;;2.13;;
53781;SDS011;39692;53.114;7.060;2022-12-29T08:58:36;8.35;;;1.85;;
53781;SDS011;39692;53.114;7.060;2022-12-29T09:01:02;9.40;;;2.78;;
53781;SDS011;39692;53.114;7.060;2022-12-29T09:03:28;11.90;;;2.10;;
53781;SDS011;39692;53.114;7.060;2022-12-29T09:05:55;7.47;;;1.50;;
53781;SDS011;39692;53.114;7.060;2022-12-29T09:08:21;4.95;;;1.60;;
53781;SDS011;39692;53.114;7.060;2022-12-29T09:10:48;10.05;;;2.13;;
53781;SDS011;39692;53.114;7.060;2022-12-29T09:13:14;8.13;;;1.65;;
53781;SDS011;39692;53.114;7.060;2022-12-29T09:15:40;8.27;;;2.20;;
53781;SDS011;39692;53.114;7.060;2022-12-29T09:18:09;9.93;;;2.50;;
53781;SDS011;39692;53.114;7.060;2022-12-29T09:20:36;6.45;;;1.80;;
53781;SDS011;39692;53.114;7.060;2022-12-29T09:23:02;6.78;;;2.00;;
53781;SDS011;39692;53.114;7.060;2022-12-29T09:25:28;9.20;;;1.65;;
53781;SDS011;39692;53.114;7.060;2022-12-29T09:27:54;6.47;;;1.73;;
53781;SDS011;39692;53.114;7.060;2022-12-29T09:30:21;7.78;;;2.03;;
53781;SDS011;39692;53.114;7.060;2022-12-29T09:32:47;8.98;;;1.90;;
53781;SDS011;39692;53.114;7.060;2022-12-29T09:35:14;7.35;;;1.50;;
53781;SDS011;39692;53.114;7.060;2022-12-29T09:37:41;7.38;;;1.42;;
53781;SDS011;39692;53.114;7.060;2022-12-29T09:40:09;7.90;;;1.60;;
53781;SDS011;39692;53.114;7.060;2022-12-29T09:42:50;6.07;;;1.60;;
53781;SDS011;39692;53.114;7.060;2022-12-29T09:45:25;7.28;;;1.92;;
53781;SDS011;39692;53.114;7.060;2022-12-29T09:47:53;13.37;;;2.77;;
53781;SDS011;39692;53.114;7.060;2022-12-29T09:50:29;7.05;;;1.88;;
53781;SDS011;39692;53.114;7.060;2022-12-29T09:53:15;10.30;;;1.85;;
53781;SDS011;39692;53.114;7.060;2022-12-29T09:55:45;7.10;;;1.67;;
53781;SDS011;39692;53.114;7.060;2022-12-29T09:58:28;13.73;;;3.17;;
53781;SDS011;39692;53.114;7.060;2022-12-29T10:01:05;10.90;;;2.28;;
53781;SDS011;39692;53.114;7.060;2022-12-29T10:03:48;7.57;;;1.83;;
53781;SDS011;39692;53.114;7.060;2022-12-29T10:14:26;3.38;;;1.27;;
53781;SDS011;39692;53.114;7.060;2022-12-29T10:17:01;3.65;;;1.40;;
53781;SDS011;39692;53.114;7.060;2022-12-29T10:19:44;5.60;;;1.35;;
53781;SDS011;39692;53.114;7.060;2022-12-29T10:22:26;4.60;;;1.52;;
53781;SDS011;39692;53.114;7.060;2022-12-29T10:24:55;5.35;;;1.33;;
53781;SDS011;39692;53.114;7.060;2022-12-29T10:27:22;5.22;;;1.65;;
53781;SDS011;39692;53.114;7.060;2022-12-29T10:29:50;6.35;;;1.42;;
53781;SDS011;39692;53.114;7.060;2022-12-29T10:32:29;6.35;;;1.67;;
53781;SDS011;39692;53.114;7.060;2022-12-29T10:34:58;9.10;;;1.85;;
53781;SDS011;39692;53.114;7.060;2022-12-29T10:37:31;3.90;;;1.48;;
53781;SDS011;39692;53.114;7.060;2022-12-29T10:39:59;5.90;;;1.50;;
53781;SDS011;39692;53.114;7.060;2022-12-29T10:44:55;7.68;;;1.55;;
53781;SDS011;39692;53.114;7.060;2022-12-29T10:47:23;4.18;;;1.45;;
53781;SDS011;39692;53.114;7.060;2022-12-29T10:49:50;5.90;;;1.60;;
53781;SDS011;39692;53.114;7.060;2022-12-29T10:52:17;7.63;;;1.55;;
53781;SDS011;39692;53.114;7.060;2022-12-29T10:54:46;6.10;;;1.67;;
53781;SDS011;39692;53.114;7.060;2022-12-29T10:57:17;7.10;;;2.10;;
53781;SDS011;39692;53.114;7.060;2022-12-29T10:59:45;3.60;;;1.33;;
53781;SDS011;39692;53.114;7.060;2022-12-29T11:07:16;4.07;;;1.35;;
53781;SDS011;39692;53.114;7.060;2022-12-29T11:09:43;8.77;;;2.08;;
53781;SDS011;39692;53.114;7.060;2022-12-29T11:15:00;4.57;;;1.88;;
53781;SDS011;39692;53.114;7.060;2022-12-29T11:17:26;6.18;;;1.77;;
53781;SDS011;39692;53.114;7.060;2022-12-29T11:19:52;2.53;;;0.98;;
53781;SDS011;39692;53.114;7.060;2022-12-29T11:22:27;6.20;;;1.30;;
53781;SDS011;39692;53.114;7.060;2022-12-29T11:24:53;6.93;;;1.27;;
53781;SDS011;39692;53.114;7.060;2022-12-29T11:27:21;5.13;;;1.25;;
53781;SDS011;39692;53.114;7.060;2022-12-29T11:29:50;4.70;;;1.30;;
53781;SDS011;39692;53.114;7.060;2022-12-29T11:32:17;6.65;;;1.38;;
53781;SDS011;39692;53.114;7.060;2022-12-29T11:34:44;3.90;;;1.15;;
53781;SDS011;39692;53.114;7.060;2022-12-29T11:39:38;8.57;;;1.35;;
53781;SDS011;39692;53.114;7.060;2022-12-29T11:42:05;3.97;;;1.33;;
53781;SDS011;39692;53.114;7.060;2022-12-29T11:44:36;4.57;;;1.33;;
53781;SDS011;39692;53.114;7.060;2022-12-29T11:47:03;5.68;;;1.10;;
53781;SDS011;39692;53.114;7.060;2022-12-29T11:49:29;3.50;;;1.00;;
53781;SDS011;39692;53.114;7.060;2022-12-29T11:51:55;5.60;;;1.38;;
53781;SDS011;39692;53.114;7.060;2022-12-29T11:54:23;6.68;;;1.42;;
53781;SDS011;39692;53.114;7.060;2022-12-29T11:56:51;3.97;;;1.65;;
53781;SDS011;39692;53.114;7.060;2022-12-29T12:01:56;6.07;;;1.42;;
53781;SDS011;39692;53.114;7.060;2022-12-29T12:04:24;5.45;;;1.20;;
53781;SDS011;39692;53.114;7.060;2022-12-29T12:07:02;5.07;;;1.65;;
53781;SDS011;39692;53.114;7.060;2022-12-29T12:09:32;7.43;;;1.67;;
53781;SDS011;39692;53.114;7.060;2022-12-29T12:12:00;7.22;;;1.58;;
53781;SDS011;39692;53.114;7.060;2022-12-29T12:14:38;5.18;;;1.25;;
53781;SDS011;39692;53.114;7.060;2022-12-29T12:17:14;12.15;;;1.98;;
53781;SDS011;39692;53.114;7.060;2022-12-29T12:19:49;13.18;;;2.05;;
53781;SDS011;39692;53.114;7.060;2022-12-29T12:22:21;5.55;;;1.90;;
53781;SDS011;39692;53.114;7.060;2022-12-29T12:24:53;5.55;;;2.05;;
53781;SDS011;39692;53.114;7.060;2022-12-29T12:35:13;6.03;;;1.67;;
53781;SDS011;39692;53.114;7.060;2022-12-29T12:37:46;9.30;;;1.98;;
53781;SDS011;39692;53.114;7.060;2022-12-29T12:42:54;8.02;;;2.38;;
53781;SDS011;39692;53.114;7.060;2022-12-29T12:45:27;6.82;;;2.13;;
53781;SDS011;39692;53.114;7.060;2022-12-29T12:56:07;13.45;;;4.50;;
53781;SDS011;39692;53.114;7.060;2022-12-29T13:22:08;12.82;;;3.17;;
53781;SDS011;39692;53.114;7.060;2022-12-29T13:27:08;11.00;;;2.53;;
53781;SDS011;39692;53.114;7.060;2022-12-29T13:29:42;9.57;;;2.60;;
53781;SDS011;39692;53.114;7.060;2022-12-29T13:34:56;9.68;;;2.30;;
53781;SDS011;39692;53.114;7.060;2022-12-29T13:37:28;6.35;;;2.08;;
53781;SDS011;39692;53.114;7.060;2022-12-29T13:39:56;7.32;;;1.88;;
53781;SDS011;39692;53.114;7.060;2022-12-29T13:42:23;6.05;;;2.35;;
53781;SDS011;39692;53.114;7.060;2022-12-29T13:44:54;7.30;;;2.75;;
53781;SDS011;39692;53.114;7.060;2022-12-29T13:50:05;7.18;;;1.95;;
53781;SDS011;39692;53.114;7.060;2022-12-29T13:57:47;9.80;;;1.80;;
53781;SDS011;39692;53.114;7.060;2022-12-29T14:00:21;8.82;;;1.98;;
53781;SDS011;39692;53.114;7.060;2022-12-29T14:02:57;8.65;;;2.25;;
53781;SDS011;39692;53.114;7.060;2022-12-29T14:05:30;7.93;;;1.50;;
53781;SDS011;39692;53.114;7.060;2022-12-29T14:08:02;5.05;;;1.55;;
53781;SDS011;39692;53.114;7.060;2022-12-29T14:15:40;7.97;;;1.77;;
53781;SDS011;39692;53.114;7.060;2022-12-29T14:18:17;8.15;;;2.22;;
53781;SDS011;39692;53.114;7.060;2022-12-29T14:23:27;7.05;;;1.65;;
53781;SDS011;39692;53.114;7.060;2022-12-29T14:25:55;7.35;;;1.75;;
53781;SDS011;39692;53.114;7.060;2022-12-29T14:28:23;14.43;;;2.03;;
53781;SDS011;39692;53.114;7.060;2022-12-29T14:30:53;8.00;;;2.08;;
53781;SDS011;39692;53.114;7.060;2022-12-29T14:33:19;5.65;;;1.65;;
53781;SDS011;39692;53.114;7.060;2022-12-29T14:35:47;7.85;;;1.48;;
53781;SDS011;39692;53.114;7.060;2022-12-29T14:38:21;8.68;;;1.88;;
53781;SDS011;39692;53.114;7.060;2022-12-29T14:40:47;6.72;;;1.38;;
53781;SDS011;39692;53.114;7.060;2022-12-29T14:43:18;8.02;;;1.67;;
53781;SDS011;39692;53.114;7.060;2022-12-29T14:45:51;6.60;;;1.33;;
53781;SDS011;39692;53.114;7.060;2022-12-29T14:48:22;7.07;;;2.00;;
53781;SDS011;39692;53.114;7.060;2022-12-29T14:50:54;8.13;;;1.25;;
53781;SDS011;39692;53.114;7.060;2022-12-29T14:56:08;6.85;;;1.85;;
53781;SDS011;39692;53.114;7.060;2022-12-29T15:03:49;6.30;;;1.83;;
53781;SDS011;39692;53.114;7.060;2022-12-29T15:06:16;5.72;;;1.45;;
53781;SDS011;39692;53.114;7.060;2022-12-29T15:08:50;12.73;;;2.00;;
53781;SDS011;39692;53.114;7.060;2022-12-29T15:11:19;4.50;;;1.77;;
53781;SDS011;39692;53.114;7.060;2022-12-29T15:13:46;8.60;;;1.85;;
53781;SDS011;39692;53.114;7.060;2022-12-29T15:16:46;5.80;;;1.02;;
53781;SDS011;39692;53.114;7.060;2022-12-29T15:19:19;9.70;;;1.58;;
53781;SDS011;39692;53.114;7.060;2022-12-29T15:21:46;8.90;;;1.85;;
53781;SDS011;39692;53.114;7.060;2022-12-29T15:24:12;5.82;;;1.02;;
53781;SDS011;39692;53.114;7.060;2022-12-29T15:26:40;4.47;;;1.20;;
53781;SDS011;39692;53.114;7.060;2022-12-29T15:31:51;7.93;;;1.42;;
53781;SDS011;39692;53.114;7.060;2022-12-29T15:34:19;6.03;;;1.13;;
53781;SDS011;39692;53.114;7.060;2022-12-29T15:36:46;5.00;;;1.17;;
53781;SDS011;39692;53.114;7.060;2022-12-29T15:39:33;3.03;;;1.33;;
53781;SDS011;39692;53.114;7.060;2022-12-29T15:42:05;4.78;;;1.33;;
53781;SDS011;39692;53.114;7.060;2022-12-29T15:44:44;8.95;;;1.67;;
53781;SDS011;39692;53.114;7.060;2022-12-29T15:47:20;6.38;;;1.25;;
53781;SDS011;39692;53.114;7.060;2022-12-29T15:49:47;5.90;;;1.02;;
53781;SDS011;39692;53.114;7.060;2022-12-29T15:52:17;5.97;;;1.52;;
53781;SDS011;39692;53.114;7.060;2022-12-29T15:54:44;9.95;;;1.90;;
53781;SDS011;39692;53.114;7.060;2022-12-29T15:57:21;4.13;;;1.13;;
53781;SDS011;39692;53.114;7.060;2022-12-29T15:59:48;5.35;;;1.42;;
53781;SDS011;39692;53.114;7.060;2022-12-29T16:02:14;5.65;;;1.35;;
53781;SDS011;39692;53.114;7.060;2022-12-29T16:04:40;4.55;;;1.55;;
53781;SDS011;39692;53.114;7.060;2022-12-29T16:09:55;4.70;;;1.50;;
53781;SDS011;39692;53.114;7.060;2022-12-29T16:12:40;7.07;;;1.55;;
53781;SDS011;39692;53.114;7.060;2022-12-29T16:15:06;6.18;;;1.50;;
53781;SDS011;39692;53.114;7.060;2022-12-29T16:17:34;6.88;;;1.55;;
53781;SDS011;39692;53.114;7.060;2022-12-29T16:20:03;4.82;;;1.33;;
53781;SDS011;39692;53.114;7.060;2022-12-29T16:22:34;6.05;;;1.58;;
53781;SDS011;39692;53.114;7.060;2022-12-29T16:25:04;6.38;;;1.45;;
53781;SDS011;39692;53.114;7.060;2022-12-29T16:29:58;3.90;;;1.10;;
53781;SDS011;39692;53.114;7.060;2022-12-29T16:32:29;10.85;;;2.10;;
53781;SDS011;39692;53.114;7.060;2022-12-29T16:35:07;4.40;;;1.15;;
53781;SDS011;39692;53.114;7.060;2022-12-29T16:37:35;8.18;;;1.98;;
53781;SDS011;39692;53.114;7.060;2022-12-29T16:42:47;9.05;;;1.38;;
53781;SDS011;39692;53.114;7.060;2022-12-29T16:47:49;9.05;;;1.73;;
53781;SDS011;39692;53.114;7.060;2022-12-29T16:50:19;9.50;;;1.70;;
53781;SDS011;39692;53.114;7.060;2022-12-29T16:52:50;8.02;;;2.40;;
53781;SDS011;39692;53.114;7.060;2022-12-29T16:55:17;4.97;;;1.50;;
53781;SDS011;39692;53.114;7.060;2022-12-29T16:57:46;7.95;;;1.65;;
53781;SDS011;39692;53.114;7.060;2022-12-29T17:00:20;7.10;;;2.28;;
53781;SDS011;39692;53.114;7.060;2022-12-29T17:02:47;8.10;;;1.73;;
53781;SDS011;39692;53.114;7.060;2022-12-29T17:05:15;5.57;;;1.95;;
53781;SDS011;39692;53.114;7.060;2022-12-29T17:07:41;5.68;;;1.95;;
53781;SDS011;39692;53.114;7.060;2022-12-29T17:10:08;4.78;;;2.03;;
53781;SDS011;39692;53.114;7.060;2022-12-29T17:12:34;3.55;;;1.50;;
53781;SDS011;39692;53.114;7.060;2022-12-29T17:15:11;4.32;;;1.50;;
53781;SDS011;39692;53.114;7.060;2022-12-29T17:17:40;2.92;;;0.82;;
53781;SDS011;39692;53.114;7.060;2022-12-29T17:22:42;1.27;;;0.63;;
53781;SDS011;39692;53.114;7.060;2022-12-29T17:25:12;1.10;;;0.40;;
53781;SDS011;39692;53.114;7.060;2022-12-29T17:30:14;2.97;;;0.70;;